sensor_id;sensor_type;location;lat;lon;timestamp;temperature;humidity
26655;DHT22;14278;50.784;4.630;2022-11-04T00:01:33;10.90;99.90
26655;DHT22;14278;50.784;4.630;2022-11-04T00:04:02;10.80;99.90
26655;DHT22;14278;50.784;4.630;2022-11-04T00:06:29;10.70;99.90
26655;DHT22;14278;50.784;4.630;2022-11-04T00:08:56;10.70;99.90
26655;DHT22;14278;50.784;4.630;2022-11-04T00:11:23;10.70;99.90
26655;DHT22;14278;50.784;4.630;2022-11-04T00:14:08;10.70;99.90
26655;DHT22;14278;50.784;4.630;2022-11-04T00:16:34;10.70;99.90
26655;DHT22;14278;50.784;4.630;2022-11-04T00:19:20;10.80;99.90
26655;DHT22;14278;50.784;4.630;2022-11-04T00:21:46;10.80;99.90
26655;DHT22;14278;50.784;4.630;2022-11-04T00:24:30;10.80;99.90
26655;DHT22;14278;50.784;4.630;2022-11-04T00:27:17;10.70;99.90
26655;DHT22;14278;50.784;4.630;2022-11-04T00:30:03;10.80;99.90
26655;DHT22;14278;50.784;4.630;2022-11-04T00:32:30;10.80;99.90
26655;DHT22;14278;50.784;4.630;2022-11-04T00:35:15;10.80;99.90
26655;DHT22;14278;50.784;4.630;2022-11-04T00:37:42;10.70;99.90
26655;DHT22;14278;50.784;4.630;2022-11-04T00:40:11;10.70;99.90
26655;DHT22;14278;50.784;4.630;2022-11-04T00:42:38;10.70;99.90
26655;DHT22;14278;50.784;4.630;2022-11-04T00:45:04;10.80;99.90
26655;DHT22;14278;50.784;4.630;2022-11-04T00:47:30;10.90;99.90
26655;DHT22;14278;50.784;4.630;2022-11-04T00:49:56;10.80;99.90
26655;DHT22;14278;50.784;4.630;2022-11-04T00:52:21;10.80;99.90
26655;DHT22;14278;50.784;4.630;2022-11-04T00:54:48;10.90;99.90
26655;DHT22;14278;50.784;4.630;2022-11-04T00:57:14;10.70;99.90
26655;DHT22;14278;50.784;4.630;2022-11-04T00:59:40;10.70;99.90
26655;DHT22;14278;50.784;4.630;2022-11-04T01:02:08;11.00;99.90
26655;DHT22;14278;50.784;4.630;2022-11-04T01:04:34;11.10;99.90
26655;DHT22;14278;50.784;4.630;2022-11-04T01:07:02;11.10;99.90
26655;DHT22;14278;50.784;4.630;2022-11-04T01:09:28;11.20;99.90
26655;DHT22;14278;50.784;4.630;2022-11-04T01:11:54;11.30;99.90
26655;DHT22;14278;50.784;4.630;2022-11-04T01:14:19;11.10;99.90
26655;DHT22;14278;50.784;4.630;2022-11-04T01:16:45;11.10;99.90
26655;DHT22;14278;50.784;4.630;2022-11-04T01:19:13;11.20;99.90
26655;DHT22;14278;50.784;4.630;2022-11-04T01:21:39;11.30;99.90
26655;DHT22;14278;50.784;4.630;2022-11-04T01:24:05;11.20;99.90
26655;DHT22;14278;50.784;4.630;2022-11-04T01:26:31;11.20;99.90
26655;DHT22;14278;50.784;4.630;2022-11-04T01:28:57;11.10;99.90
26655;DHT22;14278;50.784;4.630;2022-11-04T01:31:27;11.00;99.90
26655;DHT22;14278;50.784;4.630;2022-11-04T01:33:54;10.90;99.90
26655;DHT22;14278;50.784;4.630;2022-11-04T01:36:21;10.70;99.90
26655;DHT22;14278;50.784;4.630;2022-11-04T01:38:47;10.80;99.90
26655;DHT22;14278;50.784;4.630;2022-11-04T01:41:22;10.70;99.90
26655;DHT22;14278;50.784;4.630;2022-11-04T01:43:59;10.80;99.90
26655;DHT22;14278;50.784;4.630;2022-11-04T01:46:41;10.80;99.90
26655;DHT22;14278;50.784;4.630;2022-11-04T01:51:43;10.50;99.90
26655;DHT22;14278;50.784;4.630;2022-11-04T01:54:10;10.60;99.90
26655;DHT22;14278;50.784;4.630;2022-11-04T01:56:38;10.60;99.90
26655;DHT22;14278;50.784;4.630;2022-11-04T01:59:09;10.50;99.90
26655;DHT22;14278;50.784;4.630;2022-11-04T02:01:36;10.40;99.90
26655;DHT22;14278;50.784;4.630;2022-11-04T02:04:02;10.50;99.90
26655;DHT22;14278;50.784;4.630;2022-11-04T02:06:48;10.30;99.90
26655;DHT22;14278;50.784;4.630;2022-11-04T02:09:16;10.40;99.90
26655;DHT22;14278;50.784;4.630;2022-11-04T02:11:41;10.40;99.90
26655;DHT22;14278;50.784;4.630;2022-11-04T02:14:26;10.60;99.90
26655;DHT22;14278;50.784;4.630;2022-11-04T02:16:56;10.40;99.90
26655;DHT22;14278;50.784;4.630;2022-11-04T02:19:58;10.40;99.90
26655;DHT22;14278;50.784;4.630;2022-11-04T02:22:54;10.50;99.90
26655;DHT22;14278;50.784;4.630;2022-11-04T02:31:37;10.20;99.90
26655;DHT22;14278;50.784;4.630;2022-11-04T02:34:18;10.20;99.90
26655;DHT22;14278;50.784;4.630;2022-11-04T02:39:50;10.10;99.90
26655;DHT22;14278;50.784;4.630;2022-11-04T02:44:57;10.20;99.90
26655;DHT22;14278;50.784;4.630;2022-11-04T02:47:28;10.30;99.90
26655;DHT22;14278;50.784;4.630;2022-11-04T02:50:33;10.60;99.90
26655;DHT22;14278;50.784;4.630;2022-11-04T02:53:02;10.50;99.90
26655;DHT22;14278;50.784;4.630;2022-11-04T02:55:38;10.60;99.90
26655;DHT22;14278;50.784;4.630;2022-11-04T02:58:13;10.70;99.90
26655;DHT22;14278;50.784;4.630;2022-11-04T03:00:41;10.80;99.90
26655;DHT22;14278;50.784;4.630;2022-11-04T03:03:19;10.80;99.90
26655;DHT22;14278;50.784;4.630;2022-11-04T03:05:48;10.90;99.90
26655;DHT22;14278;50.784;4.630;2022-11-04T03:08:22;11.10;99.90
26655;DHT22;14278;50.784;4.630;2022-11-04T03:10:52;11.00;99.90
26655;DHT22;14278;50.784;4.630;2022-11-04T03:13:28;10.90;99.90
26655;DHT22;14278;50.784;4.630;2022-11-04T03:16:00;10.90;99.90
26655;DHT22;14278;50.784;4.630;2022-11-04T03:18:37;11.10;99.90
26655;DHT22;14278;50.784;4.630;2022-11-04T03:21:08;11.20;99.90
26655;DHT22;14278;50.784;4.630;2022-11-04T03:23:36;10.70;99.90
26655;DHT22;14278;50.784;4.630;2022-11-04T03:26:22;10.60;99.90
26655;DHT22;14278;50.784;4.630;2022-11-04T03:29:03;10.40;99.90
26655;DHT22;14278;50.784;4.630;2022-11-04T03:31:44;10.40;99.90
26655;DHT22;14278;50.784;4.630;2022-11-04T03:34:12;10.60;99.90
26655;DHT22;14278;50.784;4.630;2022-11-04T03:36:37;10.80;99.90
26655;DHT22;14278;50.784;4.630;2022-11-04T03:39:03;11.00;99.90
26655;DHT22;14278;50.784;4.630;2022-11-04T03:41:34;10.90;99.90
26655;DHT22;14278;50.784;4.630;2022-11-04T03:44:03;11.00;99.90
26655;DHT22;14278;50.784;4.630;2022-11-04T03:46:29;10.90;99.90
26655;DHT22;14278;50.784;4.630;2022-11-04T03:48:57;11.00;99.90
26655;DHT22;14278;50.784;4.630;2022-11-04T03:51:24;10.90;99.90
26655;DHT22;14278;50.784;4.630;2022-11-04T03:53:50;10.70;99.90
26655;DHT22;14278;50.784;4.630;2022-11-04T03:56:27;10.80;99.90
26655;DHT22;14278;50.784;4.630;2022-11-04T04:01:54;11.10;99.90
26655;DHT22;14278;50.784;4.630;2022-11-04T04:04:34;11.40;99.90
26655;DHT22;14278;50.784;4.630;2022-11-04T04:07:27;11.50;99.90
26655;DHT22;14278;50.784;4.630;2022-11-04T04:10:14;11.60;99.90
26655;DHT22;14278;50.784;4.630;2022-11-04T04:13:02;11.40;99.90
26655;DHT22;14278;50.784;4.630;2022-11-04T04:15:43;11.70;99.90
26655;DHT22;14278;50.784;4.630;2022-11-04T04:18:13;11.70;99.90
26655;DHT22;14278;50.784;4.630;2022-11-04T04:20:41;11.30;99.90
26655;DHT22;14278;50.784;4.630;2022-11-04T04:23:11;11.40;99.90
26655;DHT22;14278;50.784;4.630;2022-11-04T04:25:59;11.10;99.90
26655;DHT22;14278;50.784;4.630;2022-11-04T04:28:46;11.10;99.90
26655;DHT22;14278;50.784;4.630;2022-11-04T04:31:14;11.10;99.90
26655;DHT22;14278;50.784;4.630;2022-11-04T04:34:04;10.90;99.90
26655;DHT22;14278;50.784;4.630;2022-11-04T04:36:33;10.80;99.90
26655;DHT22;14278;50.784;4.630;2022-11-04T04:39:05;10.80;99.90
26655;DHT22;14278;50.784;4.630;2022-11-04T04:41:52;10.80;99.90
26655;DHT22;14278;50.784;4.630;2022-11-04T04:44:40;11.30;99.90
26655;DHT22;14278;50.784;4.630;2022-11-04T04:47:40;11.40;99.90
26655;DHT22;14278;50.784;4.630;2022-11-04T04:50:08;11.30;99.90
26655;DHT22;14278;50.784;4.630;2022-11-04T04:52:41;11.30;99.90
26655;DHT22;14278;50.784;4.630;2022-11-04T04:55:08;11.40;99.90
26655;DHT22;14278;50.784;4.630;2022-11-04T04:57:33;11.50;99.90
26655;DHT22;14278;50.784;4.630;2022-11-04T04:59:59;11.10;99.90
26655;DHT22;14278;50.784;4.630;2022-11-04T05:02:25;11.10;99.90
26655;DHT22;14278;50.784;4.630;2022-11-04T05:04:52;11.20;99.90
26655;DHT22;14278;50.784;4.630;2022-11-04T05:07:17;11.10;99.90
26655;DHT22;14278;50.784;4.630;2022-11-04T05:09:43;11.20;99.90
26655;DHT22;14278;50.784;4.630;2022-11-04T05:12:09;11.10;99.90
26655;DHT22;14278;50.784;4.630;2022-11-04T05:14:35;11.10;99.90
26655;DHT22;14278;50.784;4.630;2022-11-04T05:17:01;11.20;99.90
26655;DHT22;14278;50.784;4.630;2022-11-04T05:19:27;11.40;99.90
26655;DHT22;14278;50.784;4.630;2022-11-04T05:21:53;11.50;99.90
26655;DHT22;14278;50.784;4.630;2022-11-04T05:24:19;11.60;99.90
26655;DHT22;14278;50.784;4.630;2022-11-04T05:26:45;11.50;99.90
26655;DHT22;14278;50.784;4.630;2022-11-04T05:29:12;11.30;99.90
26655;DHT22;14278;50.784;4.630;2022-11-04T05:31:38;11.40;99.90
26655;DHT22;14278;50.784;4.630;2022-11-04T05:34:03;11.30;99.90
26655;DHT22;14278;50.784;4.630;2022-11-04T05:36:30;11.50;99.90
26655;DHT22;14278;50.784;4.630;2022-11-04T05:39:00;11.50;99.90
26655;DHT22;14278;50.784;4.630;2022-11-04T05:41:26;11.50;99.90
26655;DHT22;14278;50.784;4.630;2022-11-04T05:43:56;11.60;99.90
26655;DHT22;14278;50.784;4.630;2022-11-04T05:46:22;11.50;99.90
26655;DHT22;14278;50.784;4.630;2022-11-04T05:48:48;11.40;99.90
26655;DHT22;14278;50.784;4.630;2022-11-04T05:51:19;11.40;99.90
26655;DHT22;14278;50.784;4.630;2022-11-04T05:53:45;11.20;99.90
26655;DHT22;14278;50.784;4.630;2022-11-04T05:56:12;11.20;99.90
26655;DHT22;14278;50.784;4.630;2022-11-04T05:58:38;11.30;99.90
26655;DHT22;14278;50.784;4.630;2022-11-04T06:01:34;11.20;99.90
26655;DHT22;14278;50.784;4.630;2022-11-04T06:04:01;11.40;99.90
26655;DHT22;14278;50.784;4.630;2022-11-04T06:06:32;11.90;99.90
26655;DHT22;14278;50.784;4.630;2022-11-04T06:08:59;11.60;99.90
26655;DHT22;14278;50.784;4.630;2022-11-04T06:11:27;11.40;99.90
26655;DHT22;14278;50.784;4.630;2022-11-04T06:13:54;11.50;99.90
26655;DHT22;14278;50.784;4.630;2022-11-04T06:16:20;11.40;99.90
26655;DHT22;14278;50.784;4.630;2022-11-04T06:18:46;11.30;99.90
26655;DHT22;14278;50.784;4.630;2022-11-04T06:23:41;11.40;99.90
26655;DHT22;14278;50.784;4.630;2022-11-04T06:26:08;11.50;99.90
26655;DHT22;14278;50.784;4.630;2022-11-04T06:28:34;11.60;99.90
26655;DHT22;14278;50.784;4.630;2022-11-04T06:31:01;11.50;99.90
26655;DHT22;14278;50.784;4.630;2022-11-04T06:33:28;11.50;99.90
26655;DHT22;14278;50.784;4.630;2022-11-04T06:36:01;11.60;99.90
26655;DHT22;14278;50.784;4.630;2022-11-04T06:38:29;11.70;99.90
26655;DHT22;14278;50.784;4.630;2022-11-04T06:40:56;11.80;99.90
26655;DHT22;14278;50.784;4.630;2022-11-04T06:43:23;12.10;99.90
26655;DHT22;14278;50.784;4.630;2022-11-04T06:45:59;12.10;99.90
26655;DHT22;14278;50.784;4.630;2022-11-04T06:48:25;12.10;99.90
26655;DHT22;14278;50.784;4.630;2022-11-04T06:50:51;12.30;99.90
26655;DHT22;14278;50.784;4.630;2022-11-04T06:53:18;12.30;99.90
26655;DHT22;14278;50.784;4.630;2022-11-04T06:55:44;12.20;99.90
26655;DHT22;14278;50.784;4.630;2022-11-04T06:58:10;12.00;99.90
26655;DHT22;14278;50.784;4.630;2022-11-04T07:00:36;12.00;99.90
26655;DHT22;14278;50.784;4.630;2022-11-04T07:03:02;12.10;99.90
26655;DHT22;14278;50.784;4.630;2022-11-04T07:05:28;12.00;99.90
26655;DHT22;14278;50.784;4.630;2022-11-04T07:07:57;12.00;99.90
26655;DHT22;14278;50.784;4.630;2022-11-04T07:10:22;11.90;99.90
26655;DHT22;14278;50.784;4.630;2022-11-04T07:12:48;12.10;99.90
26655;DHT22;14278;50.784;4.630;2022-11-04T07:15:14;12.10;99.90
26655;DHT22;14278;50.784;4.630;2022-11-04T07:17:40;12.00;99.90
26655;DHT22;14278;50.784;4.630;2022-11-04T07:20:07;11.90;99.90
26655;DHT22;14278;50.784;4.630;2022-11-04T07:22:33;12.00;99.90
26655;DHT22;14278;50.784;4.630;2022-11-04T07:24:59;12.20;99.90
26655;DHT22;14278;50.784;4.630;2022-11-04T07:27:24;12.30;99.90
26655;DHT22;14278;50.784;4.630;2022-11-04T07:29:50;12.30;99.90
26655;DHT22;14278;50.784;4.630;2022-11-04T07:32:17;12.40;99.90
26655;DHT22;14278;50.784;4.630;2022-11-04T07:34:42;12.60;99.90
26655;DHT22;14278;50.784;4.630;2022-11-04T07:37:08;12.70;99.90
26655;DHT22;14278;50.784;4.630;2022-11-04T07:39:34;13.00;99.90
26655;DHT22;14278;50.784;4.630;2022-11-04T07:42:00;12.90;99.90
26655;DHT22;14278;50.784;4.630;2022-11-04T07:44:27;12.80;99.90
26655;DHT22;14278;50.784;4.630;2022-11-04T07:46:53;12.70;99.90
26655;DHT22;14278;50.784;4.630;2022-11-04T07:49:18;12.40;99.90
26655;DHT22;14278;50.784;4.630;2022-11-04T07:51:44;12.60;99.90
26655;DHT22;14278;50.784;4.630;2022-11-04T07:54:12;12.70;99.90
26655;DHT22;14278;50.784;4.630;2022-11-04T07:56:39;12.50;99.90
26655;DHT22;14278;50.784;4.630;2022-11-04T07:59:05;12.70;99.90
26655;DHT22;14278;50.784;4.630;2022-11-04T08:01:31;12.90;99.90
26655;DHT22;14278;50.784;4.630;2022-11-04T08:03:58;12.80;99.90
26655;DHT22;14278;50.784;4.630;2022-11-04T08:06:24;12.80;99.90
26655;DHT22;14278;50.784;4.630;2022-11-04T08:08:50;12.70;99.90
26655;DHT22;14278;50.784;4.630;2022-11-04T08:11:20;12.70;99.90
26655;DHT22;14278;50.784;4.630;2022-11-04T08:13:47;12.30;99.90
26655;DHT22;14278;50.784;4.630;2022-11-04T08:16:18;12.40;99.90
26655;DHT22;14278;50.784;4.630;2022-11-04T08:18:45;12.60;99.90
26655;DHT22;14278;50.784;4.630;2022-11-04T08:21:13;12.50;99.90
26655;DHT22;14278;50.784;4.630;2022-11-04T08:23:39;12.50;99.90
26655;DHT22;14278;50.784;4.630;2022-11-04T08:26:10;12.80;99.90
26655;DHT22;14278;50.784;4.630;2022-11-04T08:28:37;12.30;99.90
26655;DHT22;14278;50.784;4.630;2022-11-04T08:31:06;12.30;99.90
26655;DHT22;14278;50.784;4.630;2022-11-04T08:33:33;12.00;99.90
26655;DHT22;14278;50.784;4.630;2022-11-04T08:36:24;11.80;99.90
26655;DHT22;14278;50.784;4.630;2022-11-04T08:38:51;11.90;99.90
26655;DHT22;14278;50.784;4.630;2022-11-04T08:41:20;12.40;99.90
26655;DHT22;14278;50.784;4.630;2022-11-04T08:43:47;12.40;99.90
26655;DHT22;14278;50.784;4.630;2022-11-04T08:46:13;12.60;99.90
26655;DHT22;14278;50.784;4.630;2022-11-04T08:48:40;12.80;99.90
26655;DHT22;14278;50.784;4.630;2022-11-04T08:51:11;12.60;99.90
26655;DHT22;14278;50.784;4.630;2022-11-04T08:53:38;13.00;99.90
26655;DHT22;14278;50.784;4.630;2022-11-04T08:56:18;13.20;99.90
26655;DHT22;14278;50.784;4.630;2022-11-04T08:58:44;12.80;99.90
26655;DHT22;14278;50.784;4.630;2022-11-04T09:01:10;12.70;99.90
26655;DHT22;14278;50.784;4.630;2022-11-04T09:03:38;12.50;99.90
26655;DHT22;14278;50.784;4.630;2022-11-04T09:06:06;12.60;99.90
26655;DHT22;14278;50.784;4.630;2022-11-04T09:08:32;12.60;99.90
26655;DHT22;14278;50.784;4.630;2022-11-04T09:10:58;12.90;99.90
26655;DHT22;14278;50.784;4.630;2022-11-04T09:13:24;13.30;99.90
26655;DHT22;14278;50.784;4.630;2022-11-04T09:15:49;13.30;99.90
26655;DHT22;14278;50.784;4.630;2022-11-04T09:18:16;13.30;99.90
26655;DHT22;14278;50.784;4.630;2022-11-04T09:20:42;13.40;99.90
26655;DHT22;14278;50.784;4.630;2022-11-04T09:23:08;13.40;99.90
26655;DHT22;14278;50.784;4.630;2022-11-04T09:25:34;13.40;99.90
26655;DHT22;14278;50.784;4.630;2022-11-04T09:28:00;13.30;99.90
26655;DHT22;14278;50.784;4.630;2022-11-04T09:30:26;13.60;99.90
26655;DHT22;14278;50.784;4.630;2022-11-04T09:32:52;13.70;99.90
26655;DHT22;14278;50.784;4.630;2022-11-04T09:35:18;13.30;99.90
26655;DHT22;14278;50.784;4.630;2022-11-04T09:37:44;13.30;99.90
26655;DHT22;14278;50.784;4.630;2022-11-04T09:40:17;12.90;99.90
26655;DHT22;14278;50.784;4.630;2022-11-04T09:43:02;13.00;99.90
26655;DHT22;14278;50.784;4.630;2022-11-04T09:45:32;13.40;99.90
26655;DHT22;14278;50.784;4.630;2022-11-04T09:48:03;13.40;99.90
26655;DHT22;14278;50.784;4.630;2022-11-04T09:50:53;13.70;99.90
26655;DHT22;14278;50.784;4.630;2022-11-04T09:53:26;14.00;99.90
26655;DHT22;14278;50.784;4.630;2022-11-04T09:56:34;14.10;99.90
26655;DHT22;14278;50.784;4.630;2022-11-04T09:59:04;13.80;99.90
26655;DHT22;14278;50.784;4.630;2022-11-04T10:04:38;14.00;99.90
26655;DHT22;14278;50.784;4.630;2022-11-04T10:12:41;14.20;99.90
26655;DHT22;14278;50.784;4.630;2022-11-04T10:21:28;15.00;99.90
26655;DHT22;14278;50.784;4.630;2022-11-04T10:26:44;15.00;99.90
26655;DHT22;14278;50.784;4.630;2022-11-04T10:29:16;14.80;99.90
26655;DHT22;14278;50.784;4.630;2022-11-04T10:31:45;15.20;99.90
26655;DHT22;14278;50.784;4.630;2022-11-04T10:36:59;15.70;99.90
26655;DHT22;14278;50.784;4.630;2022-11-04T10:39:28;15.70;99.90
26655;DHT22;14278;50.784;4.630;2022-11-04T10:41:54;15.40;99.90
26655;DHT22;14278;50.784;4.630;2022-11-04T10:44:27;15.30;99.90
26655;DHT22;14278;50.784;4.630;2022-11-04T10:52:37;16.30;99.90
26655;DHT22;14278;50.784;4.630;2022-11-04T10:57:56;16.60;99.90
26655;DHT22;14278;50.784;4.630;2022-11-04T11:00:37;16.30;99.90
26655;DHT22;14278;50.784;4.630;2022-11-04T11:05:53;15.90;99.90
26655;DHT22;14278;50.784;4.630;2022-11-04T11:08:33;15.70;99.90
26655;DHT22;14278;50.784;4.630;2022-11-04T11:11:05;15.80;99.90
26655;DHT22;14278;50.784;4.630;2022-11-04T11:13:40;15.60;99.90
26655;DHT22;14278;50.784;4.630;2022-11-04T11:16:18;15.60;99.90
26655;DHT22;14278;50.784;4.630;2022-11-04T11:19:15;15.70;99.90
26655;DHT22;14278;50.784;4.630;2022-11-04T11:21:50;15.60;99.90
26655;DHT22;14278;50.784;4.630;2022-11-04T11:24:25;15.60;99.90
26655;DHT22;14278;50.784;4.630;2022-11-04T11:26:56;15.40;99.90
26655;DHT22;14278;50.784;4.630;2022-11-04T11:29:34;15.10;99.90
26655;DHT22;14278;50.784;4.630;2022-11-04T11:32:26;15.10;99.90
26655;DHT22;14278;50.784;4.630;2022-11-04T11:34:57;15.10;99.90
26655;DHT22;14278;50.784;4.630;2022-11-04T11:37:27;15.10;99.90
26655;DHT22;14278;50.784;4.630;2022-11-04T11:39:56;15.10;99.90
26655;DHT22;14278;50.784;4.630;2022-11-04T11:42:23;15.10;99.90
26655;DHT22;14278;50.784;4.630;2022-11-04T11:44:51;15.10;99.90
26655;DHT22;14278;50.784;4.630;2022-11-04T11:47:21;15.10;99.90
26655;DHT22;14278;50.784;4.630;2022-11-04T11:50:21;15.00;99.90
26655;DHT22;14278;50.784;4.630;2022-11-04T11:53:14;15.40;99.90
26655;DHT22;14278;50.784;4.630;2022-11-04T11:56:15;15.50;99.90
26655;DHT22;14278;50.784;4.630;2022-11-04T11:58:48;15.50;99.90
26655;DHT22;14278;50.784;4.630;2022-11-04T12:01:17;15.70;99.90
26655;DHT22;14278;50.784;4.630;2022-11-04T12:03:45;15.80;99.90
26655;DHT22;14278;50.784;4.630;2022-11-04T12:19:27;15.90;99.90
26655;DHT22;14278;50.784;4.630;2022-11-04T12:27:40;15.50;99.90
26655;DHT22;14278;50.784;4.630;2022-11-04T12:30:12;15.60;99.90
26655;DHT22;14278;50.784;4.630;2022-11-04T12:32:55;15.80;99.90
26655;DHT22;14278;50.784;4.630;2022-11-04T12:35:35;16.10;99.90
26655;DHT22;14278;50.784;4.630;2022-11-04T12:38:26;15.20;99.90
26655;DHT22;14278;50.784;4.630;2022-11-04T12:41:10;15.30;99.90
26655;DHT22;14278;50.784;4.630;2022-11-04T13:00:22;14.60;99.90
26655;DHT22;14278;50.784;4.630;2022-11-04T13:03:17;14.50;99.90
26655;DHT22;14278;50.784;4.630;2022-11-04T13:05:56;14.40;99.90
26655;DHT22;14278;50.784;4.630;2022-11-04T13:08:33;14.40;99.90
26655;DHT22;14278;50.784;4.630;2022-11-04T13:14:05;14.30;99.90
26655;DHT22;14278;50.784;4.630;2022-11-04T13:16:38;14.00;99.90
26655;DHT22;14278;50.784;4.630;2022-11-04T13:19:12;14.10;99.90
26655;DHT22;14278;50.784;4.630;2022-11-04T13:21:41;13.90;99.90
26655;DHT22;14278;50.784;4.630;2022-11-04T13:24:24;14.00;99.90
26655;DHT22;14278;50.784;4.630;2022-11-04T13:26:57;14.10;99.90
26655;DHT22;14278;50.784;4.630;2022-11-04T13:29:26;14.20;99.90
26655;DHT22;14278;50.784;4.630;2022-11-04T13:31:58;14.30;99.90
26655;DHT22;14278;50.784;4.630;2022-11-04T13:39:47;14.30;99.90
26655;DHT22;14278;50.784;4.630;2022-11-04T13:44:47;14.20;99.90
26655;DHT22;14278;50.784;4.630;2022-11-04T13:47:21;14.30;99.90
26655;DHT22;14278;50.784;4.630;2022-11-04T13:49:50;14.60;99.90
26655;DHT22;14278;50.784;4.630;2022-11-04T13:52:17;14.70;99.90
26655;DHT22;14278;50.784;4.630;2022-11-04T13:57:16;14.30;99.90
26655;DHT22;14278;50.784;4.630;2022-11-04T14:00:22;14.40;99.90
26655;DHT22;14278;50.784;4.630;2022-11-04T14:02:52;14.10;99.90
26655;DHT22;14278;50.784;4.630;2022-11-04T14:18:36;13.80;99.90
26655;DHT22;14278;50.784;4.630;2022-11-04T14:21:09;13.90;99.90
26655;DHT22;14278;50.784;4.630;2022-11-04T14:23:37;13.70;99.90
26655;DHT22;14278;50.784;4.630;2022-11-04T14:26:06;13.70;99.90
26655;DHT22;14278;50.784;4.630;2022-11-04T14:28:34;13.80;99.90
26655;DHT22;14278;50.784;4.630;2022-11-04T14:31:02;13.80;99.90
26655;DHT22;14278;50.784;4.630;2022-11-04T14:33:35;13.50;99.90
26655;DHT22;14278;50.784;4.630;2022-11-04T14:44:01;14.00;99.90
26655;DHT22;14278;50.784;4.630;2022-11-04T14:46:34;13.60;99.90
26655;DHT22;14278;50.784;4.630;2022-11-04T14:49:02;13.60;99.90
26655;DHT22;14278;50.784;4.630;2022-11-04T14:51:30;13.40;99.90
26655;DHT22;14278;50.784;4.630;2022-11-04T14:54:21;13.10;99.90
26655;DHT22;14278;50.784;4.630;2022-11-04T14:56:50;13.20;99.90
26655;DHT22;14278;50.784;4.630;2022-11-04T14:59:25;13.40;99.90
26655;DHT22;14278;50.784;4.630;2022-11-04T15:01:52;13.50;99.90
26655;DHT22;14278;50.784;4.630;2022-11-04T15:04:25;13.30;99.90
26655;DHT22;14278;50.784;4.630;2022-11-04T15:07:03;13.50;99.90
26655;DHT22;14278;50.784;4.630;2022-11-04T15:09:40;13.40;99.90
26655;DHT22;14278;50.784;4.630;2022-11-04T15:12:13;13.70;99.90
26655;DHT22;14278;50.784;4.630;2022-11-04T15:15:00;13.40;99.90
26655;DHT22;14278;50.784;4.630;2022-11-04T15:17:31;13.70;99.90
26655;DHT22;14278;50.784;4.630;2022-11-04T15:19:59;13.80;99.90
26655;DHT22;14278;50.784;4.630;2022-11-04T15:22:27;13.90;99.90
26655;DHT22;14278;50.784;4.630;2022-11-04T15:24:53;14.00;99.90
26655;DHT22;14278;50.784;4.630;2022-11-04T15:27:27;14.00;99.90
26655;DHT22;14278;50.784;4.630;2022-11-04T15:29:58;13.60;99.90
26655;DHT22;14278;50.784;4.630;2022-11-04T15:32:25;13.40;99.90
26655;DHT22;14278;50.784;4.630;2022-11-04T15:34:52;13.60;99.90
26655;DHT22;14278;50.784;4.630;2022-11-04T15:37:19;13.40;99.90
26655;DHT22;14278;50.784;4.630;2022-11-04T15:39:48;13.30;99.90
26655;DHT22;14278;50.784;4.630;2022-11-04T15:42:27;13.20;99.90
26655;DHT22;14278;50.784;4.630;2022-11-04T15:50:50;12.70;99.90
26655;DHT22;14278;50.784;4.630;2022-11-04T15:53:16;12.60;99.90
26655;DHT22;14278;50.784;4.630;2022-11-04T15:55:46;12.70;99.90
26655;DHT22;14278;50.784;4.630;2022-11-04T15:58:13;12.60;99.90
26655;DHT22;14278;50.784;4.630;2022-11-04T16:00:40;12.60;99.90
26655;DHT22;14278;50.784;4.630;2022-11-04T16:03:17;12.40;99.90
26655;DHT22;14278;50.784;4.630;2022-11-04T16:05:59;12.30;99.90
26655;DHT22;14278;50.784;4.630;2022-11-04T16:08:27;12.20;99.90
26655;DHT22;14278;50.784;4.630;2022-11-04T16:13:42;12.20;99.90
26655;DHT22;14278;50.784;4.630;2022-11-04T16:16:28;11.90;99.90
26655;DHT22;14278;50.784;4.630;2022-11-04T16:18:56;11.90;99.90
26655;DHT22;14278;50.784;4.630;2022-11-04T16:21:31;11.90;99.90
26655;DHT22;14278;50.784;4.630;2022-11-04T16:24:22;11.90;99.90
26655;DHT22;14278;50.784;4.630;2022-11-04T16:26:50;11.90;99.90
26655;DHT22;14278;50.784;4.630;2022-11-04T16:29:30;11.90;99.90
26655;DHT22;14278;50.784;4.630;2022-11-04T16:32:13;11.90;99.90
26655;DHT22;14278;50.784;4.630;2022-11-04T16:34:40;11.80;99.90
26655;DHT22;14278;50.784;4.630;2022-11-04T16:37:07;11.90;99.90
26655;DHT22;14278;50.784;4.630;2022-11-04T16:39:34;11.80;99.90
26655;DHT22;14278;50.784;4.630;2022-11-04T16:41:59;11.90;99.90
26655;DHT22;14278;50.784;4.630;2022-11-04T16:44:25;11.70;99.90
26655;DHT22;14278;50.784;4.630;2022-11-04T16:46:52;11.90;99.90
26655;DHT22;14278;50.784;4.630;2022-11-04T16:49:19;11.70;99.90
26655;DHT22;14278;50.784;4.630;2022-11-04T16:51:51;11.70;99.90
26655;DHT22;14278;50.784;4.630;2022-11-04T16:54:17;11.70;99.90
26655;DHT22;14278;50.784;4.630;2022-11-04T16:56:43;11.70;99.90
26655;DHT22;14278;50.784;4.630;2022-11-04T16:59:10;11.70;99.90
26655;DHT22;14278;50.784;4.630;2022-11-04T17:01:37;11.30;99.90
26655;DHT22;14278;50.784;4.630;2022-11-04T17:04:05;11.60;99.90
26655;DHT22;14278;50.784;4.630;2022-11-04T17:06:32;11.30;99.90
26655;DHT22;14278;50.784;4.630;2022-11-04T17:08:58;11.10;99.90
26655;DHT22;14278;50.784;4.630;2022-11-04T17:11:24;11.20;99.90
26655;DHT22;14278;50.784;4.630;2022-11-04T17:13:50;11.40;99.90
26655;DHT22;14278;50.784;4.630;2022-11-04T17:16:15;11.50;99.90
26655;DHT22;14278;50.784;4.630;2022-11-04T17:18:41;11.60;99.90
26655;DHT22;14278;50.784;4.630;2022-11-04T17:21:10;11.80;99.90
26655;DHT22;14278;50.784;4.630;2022-11-04T17:23:36;11.80;99.90
26655;DHT22;14278;50.784;4.630;2022-11-04T17:26:02;11.70;99.90
26655;DHT22;14278;50.784;4.630;2022-11-04T17:28:28;11.80;99.90
26655;DHT22;14278;50.784;4.630;2022-11-04T17:30:55;11.40;99.90
26655;DHT22;14278;50.784;4.630;2022-11-04T17:33:22;11.30;99.90
26655;DHT22;14278;50.784;4.630;2022-11-04T17:35:49;11.10;99.90
26655;DHT22;14278;50.784;4.630;2022-11-04T17:38:16;11.10;99.90
26655;DHT22;14278;50.784;4.630;2022-11-04T17:40:42;11.00;99.90
26655;DHT22;14278;50.784;4.630;2022-11-04T17:43:26;10.90;99.90
26655;DHT22;14278;50.784;4.630;2022-11-04T17:46:12;11.10;99.90
26655;DHT22;14278;50.784;4.630;2022-11-04T17:48:56;11.10;99.90
26655;DHT22;14278;50.784;4.630;2022-11-04T17:51:23;11.10;99.90
26655;DHT22;14278;50.784;4.630;2022-11-04T17:53:49;11.10;99.90
26655;DHT22;14278;50.784;4.630;2022-11-04T17:56:17;11.10;99.90
26655;DHT22;14278;50.784;4.630;2022-11-04T17:58:43;11.20;99.90
26655;DHT22;14278;50.784;4.630;2022-11-04T18:01:10;11.20;99.90
26655;DHT22;14278;50.784;4.630;2022-11-04T18:03:38;11.20;99.90
26655;DHT22;14278;50.784;4.630;2022-11-04T18:06:03;11.20;99.90